createdAt,value
2022-10-16T00:00:53.218Z,95612
2022-10-16T00:02:02.958Z,95615
2022-10-16T00:03:10.544Z,95608
2022-10-16T00:04:19.220Z,95600
2022-10-16T00:05:28.907Z,95601
2022-10-16T00:06:36.563Z,95601
2022-10-16T00:07:46.291Z,95595
2022-10-16T00:08:54.937Z,95601
2022-10-16T00:10:03.592Z,95599
2022-10-16T00:11:13.255Z,95599
2022-10-16T00:12:22.043Z,95597
2022-10-16T00:13:30.679Z,95601
2022-10-16T00:14:40.377Z,95603
2022-10-16T00:15:48.057Z,95607
2022-10-16T00:16:56.793Z,95606
2022-10-16T00:18:06.478Z,95606
2022-10-16T00:19:16.168Z,95607
2022-10-16T00:20:25.899Z,95610
2022-10-16T00:21:33.601Z,95608
2022-10-16T00:22:43.237Z,95605
2022-10-16T00:23:52.951Z,95607
2022-10-16T00:25:01.606Z,95613
2022-10-16T00:26:10.279Z,95609
2022-10-16T00:27:19.962Z,95608
2022-10-16T00:28:27.666Z,95609
2022-10-16T00:29:36.280Z,95609
2022-10-16T00:30:45.943Z,95602
2022-10-16T00:31:54.653Z,95601
2022-10-16T00:33:04.310Z,95601
2022-10-16T00:34:13.958Z,95609
2022-10-16T00:35:23.654Z,95614
2022-10-16T00:36:33.324Z,95615
2022-10-16T00:37:40.990Z,95619
2022-10-16T00:38:49.674Z,95618
2022-10-16T00:39:59.276Z,95620
2022-10-16T00:41:07.955Z,95621
2022-10-16T00:42:16.608Z,95616
2022-10-16T00:43:25.272Z,95610
2022-10-16T00:44:34.920Z,95608
2022-10-16T00:45:44.579Z,95610
2022-10-16T00:46:52.279Z,95613
2022-10-16T00:48:01.968Z,95612
2022-10-16T00:49:11.596Z,95609
2022-10-16T00:50:21.270Z,95611
2022-10-16T00:51:30.931Z,95603
2022-10-16T00:52:40.711Z,95605
2022-10-16T00:53:49.396Z,95608
2022-10-16T00:55:00.026Z,95609
2022-10-16T00:56:08.693Z,95605
2022-10-16T00:57:18.358Z,95608
2022-10-16T00:58:28.041Z,95603
2022-10-16T00:59:36.729Z,95609
2022-10-16T01:00:46.440Z,95608
2022-10-16T01:01:56.050Z,95611
2022-10-16T01:03:05.712Z,95608
2022-10-16T01:04:15.416Z,95607
2022-10-16T01:05:24.063Z,95604
2022-10-16T01:06:33.723Z,95605
2022-10-16T01:07:43.383Z,95609
2022-10-16T01:08:51.044Z,95610
2022-10-16T01:09:59.747Z,95613
2022-10-16T01:11:10.389Z,95616
2022-10-16T01:12:19.051Z,95619
2022-10-16T01:13:28.706Z,95623
2022-10-16T01:14:37.358Z,95617
2022-10-16T01:15:45.031Z,95618
2022-10-16T01:16:54.728Z,95616
2022-10-16T01:18:02.403Z,95624
2022-10-16T01:19:11.053Z,95626
2022-10-16T01:20:19.714Z,95629
2022-10-16T01:21:28.510Z,95632
2022-10-16T01:22:38.172Z,95632
2022-10-16T01:23:45.818Z,95633
2022-10-16T01:24:54.470Z,95636
2022-10-16T01:26:04.159Z,95639
2022-10-16T01:27:11.811Z,95635
2022-10-16T01:28:21.520Z,95643
2022-10-16T01:29:30.128Z,95642
2022-10-16T01:30:39.779Z,95639
2022-10-16T01:31:49.459Z,95636
2022-10-16T01:32:57.118Z,95638
2022-10-16T01:34:06.782Z,95635
2022-10-16T01:35:16.451Z,95636
2022-10-16T01:36:24.098Z,95628
2022-10-16T01:37:32.763Z,95629
2022-10-16T01:38:41.509Z,95628
2022-10-16T01:39:50.176Z,95628
2022-10-16T01:40:58.824Z,95627
2022-10-16T01:42:06.503Z,95627
2022-10-16T01:43:15.117Z,95631
2022-10-16T01:44:24.801Z,95630
2022-10-16T01:45:32.437Z,95628
2022-10-16T01:46:41.105Z,95631
2022-10-16T01:47:49.755Z,95629
2022-10-16T01:48:58.452Z,95632
2022-10-16T01:50:07.128Z,95633
2022-10-16T01:51:15.780Z,95631
2022-10-16T01:52:24.753Z,95631
2022-10-16T01:53:34.100Z,95634
2022-10-16T01:54:42.759Z,95631
2022-10-16T01:55:51.598Z,95627
2022-10-16T01:57:00.270Z,95626
2022-10-16T01:58:09.043Z,95627
2022-10-16T01:59:18.670Z,95624
2022-10-16T02:00:28.330Z,95621
2022-10-16T02:01:38.018Z,95618
2022-10-16T02:02:47.692Z,95620
2022-10-16T02:03:56.344Z,95620
2022-10-16T02:05:05.003Z,95618
2022-10-16T02:06:13.691Z,95618
2022-10-16T02:07:23.485Z,95618
2022-10-16T02:08:33.175Z,95614
2022-10-16T02:09:41.817Z,95615
2022-10-16T02:10:50.464Z,95611
2022-10-16T02:12:00.129Z,95614
2022-10-16T02:13:07.827Z,95614
2022-10-16T02:14:16.510Z,95620
2022-10-16T02:15:26.176Z,95618
2022-10-16T02:16:34.822Z,95610
2022-10-16T02:17:44.480Z,95616
2022-10-16T02:18:52.166Z,95613
2022-10-16T02:20:00.800Z,95613
2022-10-16T02:21:10.463Z,95608
2022-10-16T02:22:19.185Z,95610
2022-10-16T02:23:28.790Z,95616
2022-10-16T02:24:38.514Z,95611
2022-10-16T02:25:47.217Z,95611
2022-10-16T02:26:55.881Z,95614
2022-10-16T02:28:05.544Z,95613
2022-10-16T02:29:14.242Z,95611
2022-10-16T02:30:22.966Z,95616
2022-10-16T02:31:32.612Z,95615
2022-10-16T02:32:41.262Z,95613
2022-10-16T02:33:50.932Z,95616
2022-10-16T02:34:58.601Z,95618
2022-10-16T02:36:07.299Z,95617
2022-10-16T02:37:16.989Z,95616
2022-10-16T02:38:24.660Z,95616
2022-10-16T02:39:33.350Z,95619
2022-10-16T02:40:41.990Z,95620
2022-10-16T02:41:50.748Z,95620
2022-10-16T02:43:00.422Z,95620
2022-10-16T02:44:09.071Z,95618
2022-10-16T02:45:17.707Z,95622
2022-10-16T02:46:27.418Z,95623
2022-10-16T02:47:35.150Z,95626
2022-10-16T02:48:44.813Z,95626
2022-10-16T02:49:53.545Z,95626
2022-10-16T02:51:02.217Z,95622
2022-10-16T02:52:11.903Z,95621
2022-10-16T02:53:20.617Z,95629
2022-10-16T02:54:30.262Z,95635
2022-10-16T02:55:40.912Z,95635
2022-10-16T02:56:48.652Z,95631
2022-10-16T02:57:58.340Z,95630
2022-10-16T02:59:08.048Z,95632
2022-10-16T03:00:16.713Z,95635
2022-10-16T03:01:26.427Z,95636
2022-10-16T03:02:34.081Z,95640
2022-10-16T03:03:42.713Z,95644
2022-10-16T03:04:52.421Z,95636
2022-10-16T03:06:00.121Z,95634
2022-10-16T03:07:08.738Z,95633
2022-10-16T03:08:18.408Z,95639
2022-10-16T03:09:27.056Z,95634
2022-10-16T03:10:37.019Z,95637
2022-10-16T03:11:44.714Z,95632
2022-10-16T03:12:53.369Z,95633
2022-10-16T03:14:03.040Z,95627
2022-10-16T03:15:11.702Z,95630
2022-10-16T03:16:21.429Z,95624
2022-10-16T03:17:31.112Z,95622
2022-10-16T03:18:40.783Z,95622
2022-10-16T03:19:50.435Z,95622
2022-10-16T03:21:00.098Z,95629
2022-10-16T03:22:09.798Z,95628
2022-10-16T03:23:19.545Z,95630
2022-10-16T03:24:28.131Z,95633
2022-10-16T03:25:36.792Z,95630
2022-10-16T03:26:45.465Z,95627
2022-10-16T03:27:54.155Z,95632
2022-10-16T03:29:03.875Z,95631
2022-10-16T03:30:11.555Z,95625
2022-10-16T03:31:21.210Z,95627
2022-10-16T03:32:30.879Z,95630
2022-10-16T03:33:39.548Z,95627
2022-10-16T03:34:48.245Z,95632
2022-10-16T03:35:57.874Z,95630
2022-10-16T03:37:06.536Z,95631
2022-10-16T03:38:16.238Z,95634
2022-10-16T03:39:25.984Z,95632
2022-10-16T03:40:34.653Z,95637
2022-10-16T03:41:44.343Z,95637
2022-10-16T03:42:53.038Z,95635
2022-10-16T03:44:01.707Z,95636
2022-10-16T03:45:09.372Z,95631
2022-10-16T03:46:18.017Z,95632
2022-10-16T03:47:28.108Z,95633
2022-10-16T03:48:36.408Z,95639
2022-10-16T03:49:46.086Z,95644
2022-10-16T03:50:55.825Z,95646
2022-10-16T03:52:03.438Z,95649
2022-10-16T03:53:13.112Z,95652
2022-10-16T03:54:22.761Z,95651
2022-10-16T03:55:31.414Z,95650
2022-10-16T03:56:41.115Z,95650
2022-10-16T03:57:49.777Z,95653
2022-10-16T03:58:58.436Z,95648
2022-10-16T04:00:08.103Z,95646
2022-10-16T04:01:15.812Z,95646
2022-10-16T04:02:24.500Z,95647
2022-10-16T04:03:34.234Z,95642
2022-10-16T04:04:42.949Z,95635
2022-10-16T04:05:52.612Z,95635
2022-10-16T04:07:00.299Z,95637
2022-10-16T04:08:08.961Z,95637
2022-10-16T04:09:18.648Z,95642
2022-10-16T04:10:26.313Z,95643
2022-10-16T04:11:35.996Z,95644
2022-10-16T04:12:44.654Z,95642
2022-10-16T04:13:53.342Z,95639
2022-10-16T04:15:03.005Z,95636
2022-10-16T04:16:11.681Z,95638
2022-10-16T04:17:21.339Z,95641
2022-10-16T04:18:31.075Z,95640
2022-10-16T04:19:40.827Z,95641
2022-10-16T04:20:49.489Z,95636
2022-10-16T04:21:59.210Z,95639
2022-10-16T04:23:07.886Z,95643
2022-10-16T04:24:16.523Z,95641
2022-10-16T04:25:26.253Z,95635
2022-10-16T04:26:36.000Z,95636
2022-10-16T04:27:46.170Z,95635
2022-10-16T04:28:54.484Z,95644
2022-10-16T04:30:04.044Z,95641
2022-10-16T04:31:13.756Z,95650
2022-10-16T04:32:21.404Z,95650
2022-10-16T04:33:31.104Z,95646
2022-10-16T04:34:40.791Z,95647
2022-10-16T04:35:50.451Z,95649
2022-10-16T04:37:00.186Z,95649
2022-10-16T04:38:08.821Z,95648
2022-10-16T04:39:17.489Z,95650
2022-10-16T04:40:27.149Z,95651
2022-10-16T04:41:35.798Z,95655
2022-10-16T04:42:45.474Z,95658
2022-10-16T04:43:55.165Z,95650
2022-10-16T04:45:03.822Z,95645
2022-10-16T04:46:13.463Z,95645
2022-10-16T04:47:22.128Z,95649
2022-10-16T04:48:30.818Z,95648
2022-10-16T04:49:41.486Z,95649
2022-10-16T04:50:51.687Z,95647
2022-10-16T04:51:57.795Z,95646
2022-10-16T04:53:07.484Z,95645
2022-10-16T04:54:15.242Z,95651
2022-10-16T04:55:23.918Z,95657
2022-10-16T04:56:33.660Z,95657
2022-10-16T04:57:43.347Z,95656
2022-10-16T04:58:53.026Z,95653
2022-10-16T05:00:01.733Z,95647
2022-10-16T05:01:10.392Z,95645
2022-10-16T05:02:20.180Z,95639
2022-10-16T05:03:28.757Z,95636
2022-10-16T05:04:37.408Z,95640
2022-10-16T05:05:47.213Z,95636
2022-10-16T05:06:55.887Z,95642
2022-10-16T05:08:05.592Z,95640
2022-10-16T05:09:14.267Z,95643
2022-10-16T05:10:22.945Z,95646
2022-10-16T05:11:32.690Z,95649
2022-10-16T05:12:41.337Z,95652
2022-10-16T05:13:52.182Z,95652
2022-10-16T05:15:00.687Z,95648
2022-10-16T05:16:09.350Z,95648
2022-10-16T05:17:19.070Z,95650
2022-10-16T05:18:26.732Z,95648
2022-10-16T05:19:35.412Z,95645
2022-10-16T05:20:45.090Z,95643
2022-10-16T05:21:54.774Z,95640
2022-10-16T05:23:03.660Z,95643
2022-10-16T05:24:12.246Z,95642
2022-10-16T05:25:20.953Z,95642
2022-10-16T05:26:30.625Z,95639
2022-10-16T05:27:38.301Z,95640
2022-10-16T05:28:46.991Z,95642
2022-10-16T05:29:56.716Z,95644
2022-10-16T05:31:04.385Z,95647
2022-10-16T05:32:14.102Z,95650
2022-10-16T05:33:22.769Z,95650
2022-10-16T05:34:31.445Z,95653
2022-10-16T05:35:41.158Z,95656
2022-10-16T05:36:49.803Z,95663
2022-10-16T05:37:58.464Z,95662
2022-10-16T05:39:08.124Z,95663
2022-10-16T05:40:16.807Z,95658
2022-10-16T05:41:26.481Z,95660
2022-10-16T05:42:35.141Z,95662
2022-10-16T05:43:43.843Z,95664
2022-10-16T05:44:53.489Z,95667
2022-10-16T05:46:02.239Z,95665
2022-10-16T05:47:10.899Z,95664
2022-10-16T05:48:20.581Z,95668
2022-10-16T05:49:29.236Z,95674
2022-10-16T05:50:38.876Z,95678
2022-10-16T05:51:48.601Z,95674
2022-10-16T05:52:57.286Z,95677
2022-10-16T05:54:06.953Z,95676
2022-10-16T05:55:15.532Z,95677
2022-10-16T05:56:26.093Z,95682
2022-10-16T05:57:36.773Z,95679
2022-10-16T05:58:45.494Z,95683
2022-10-16T05:59:55.166Z,95683
2022-10-16T06:01:04.868Z,95684
2022-10-16T06:02:13.600Z,95686
2022-10-16T06:03:23.276Z,95684
2022-10-16T06:04:30.942Z,95686
2022-10-16T06:05:39.586Z,95688
2022-10-16T06:06:49.274Z,95694
2022-10-16T06:07:58.934Z,95684
2022-10-16T06:09:08.732Z,95695
2022-10-16T06:10:17.383Z,95694
2022-10-16T06:11:26.049Z,95691
2022-10-16T06:12:35.953Z,95693
2022-10-16T06:13:43.610Z,95693
2022-10-16T06:14:52.431Z,95690
2022-10-16T06:16:02.124Z,95693
2022-10-16T06:17:10.799Z,95693
2022-10-16T06:18:20.480Z,95694
2022-10-16T06:19:30.182Z,95698
2022-10-16T06:20:38.878Z,95698
2022-10-16T06:21:47.586Z,95704
2022-10-16T06:22:57.248Z,95699
2022-10-16T06:24:06.932Z,95701
2022-10-16T06:25:16.588Z,95701
2022-10-16T06:26:25.332Z,95697
2022-10-16T06:27:35.007Z,95699
2022-10-16T06:28:44.684Z,95698
2022-10-16T06:29:53.334Z,95693
2022-10-16T06:31:04.316Z,95698
2022-10-16T06:32:12.713Z,95695
2022-10-16T06:33:21.374Z,95697
2022-10-16T06:34:30.035Z,95702
2022-10-16T06:35:40.689Z,95704
2022-10-16T06:36:49.379Z,95704
2022-10-16T06:38:00.150Z,95708
2022-10-16T06:39:08.804Z,95711
2022-10-16T06:40:17.472Z,95712
2022-10-16T06:41:27.137Z,95715
2022-10-16T06:42:35.807Z,95718
2022-10-16T06:43:44.490Z,95722
2022-10-16T06:44:53.167Z,95721
2022-10-16T06:46:02.867Z,95720
2022-10-16T06:47:12.589Z,95723
2022-10-16T06:48:21.250Z,95726
2022-10-16T06:49:28.949Z,95726
2022-10-16T06:50:38.613Z,95725
2022-10-16T06:51:47.309Z,95730
2022-10-16T06:52:56.007Z,95731
2022-10-16T06:54:05.758Z,95731
2022-10-16T06:55:15.424Z,95733
2022-10-16T06:56:25.101Z,95735
2022-10-16T06:57:32.790Z,95737
2022-10-16T06:58:41.454Z,95734
2022-10-16T06:59:55.189Z,95737
2022-10-16T07:01:00.796Z,95737
2022-10-16T07:02:09.485Z,95737
2022-10-16T07:03:19.215Z,95738
2022-10-16T07:04:27.846Z,95744
2022-10-16T07:05:37.554Z,95739
2022-10-16T07:06:45.266Z,95740
2022-10-16T07:07:54.964Z,95745
2022-10-16T07:09:04.661Z,95745
2022-10-16T07:10:12.358Z,95745
2022-10-16T07:11:21.027Z,95746
2022-10-16T07:12:30.856Z,95751
2022-10-16T07:13:39.527Z,95751
2022-10-16T07:14:50.203Z,95758
2022-10-16T07:15:57.880Z,95759
2022-10-16T07:17:06.560Z,95759
2022-10-16T07:18:16.293Z,95766
2022-10-16T07:19:26.777Z,95762
2022-10-16T07:20:36.586Z,95769
2022-10-16T07:21:44.270Z,95764
2022-10-16T07:22:52.923Z,95760
2022-10-16T07:24:02.736Z,95765
2022-10-16T07:25:10.403Z,95769
2022-10-16T07:26:19.072Z,95763
2022-10-16T07:27:27.789Z,95764
2022-10-16T07:28:35.460Z,95769
2022-10-16T07:29:44.111Z,95769
2022-10-16T07:30:53.782Z,95766
2022-10-16T07:32:02.441Z,95773
2022-10-16T07:33:12.109Z,95772
2022-10-16T07:34:19.770Z,95773
2022-10-16T07:35:28.581Z,95775
2022-10-16T07:36:38.304Z,95775
2022-10-16T07:37:47.904Z,95777
2022-10-16T07:38:58.924Z,95776
2022-10-16T07:40:07.234Z,95787
2022-10-16T07:41:17.100Z,95785
2022-10-16T07:42:26.834Z,95787
2022-10-16T07:43:35.516Z,95790
2022-10-16T07:44:45.242Z,95796
2022-10-16T07:45:54.960Z,95796
2022-10-16T07:47:05.646Z,95791
2022-10-16T07:48:15.427Z,95798
2022-10-16T07:49:25.082Z,95799
2022-10-16T07:50:34.839Z,95803
2022-10-16T07:51:43.483Z,95802
2022-10-16T07:52:53.268Z,95803
2022-10-16T07:54:02.914Z,95805
2022-10-16T07:55:12.698Z,95805
2022-10-16T07:56:20.371Z,95801
2022-10-16T07:57:29.176Z,95806
2022-10-16T07:58:37.734Z,95807
2022-10-16T07:59:46.407Z,95811
2022-10-16T08:00:56.199Z,95812
2022-10-16T08:02:05.853Z,95814
2022-10-16T08:03:15.518Z,95814
2022-10-16T08:04:25.233Z,95817
2022-10-16T08:05:33.875Z,95814
2022-10-16T08:06:42.581Z,95816
2022-10-16T08:07:52.328Z,95818
2022-10-16T08:09:01.040Z,95820
2022-10-16T08:10:10.762Z,95820
2022-10-16T08:11:20.460Z,95820
2022-10-16T08:12:29.110Z,95821
2022-10-16T08:13:39.796Z,95818
2022-10-16T08:14:47.770Z,95820
2022-10-16T08:15:56.262Z,95819
2022-10-16T08:17:05.969Z,95819
2022-10-16T08:18:13.657Z,95816
2022-10-16T08:19:22.387Z,95817
2022-10-16T08:20:32.145Z,95818
2022-10-16T08:21:40.894Z,95815
2022-10-16T08:22:49.587Z,95815
2022-10-16T08:23:59.306Z,95817
2022-10-16T08:25:07.981Z,95819
2022-10-16T08:26:17.709Z,95814
2022-10-16T08:27:25.841Z,95818
2022-10-16T08:28:35.328Z,95818
2022-10-16T08:29:45.021Z,95824
2022-10-16T08:30:53.722Z,95818
2022-10-16T08:32:03.378Z,95822
2022-10-16T08:33:13.173Z,95827
2022-10-16T08:34:22.945Z,95828
2022-10-16T08:35:32.719Z,95824
2022-10-16T08:36:41.394Z,95827
2022-10-16T08:37:50.080Z,95832
2022-10-16T08:38:59.858Z,95828
2022-10-16T08:40:07.515Z,95832
2022-10-16T08:41:16.298Z,95831
2022-10-16T08:42:25.321Z,95833
2022-10-16T08:43:33.699Z,95836
2022-10-16T08:44:43.405Z,95834
2022-10-16T08:45:52.146Z,95839
2022-10-16T08:47:00.876Z,95836
2022-10-16T08:48:10.533Z,95838
2022-10-16T08:49:19.247Z,95841
2022-10-16T08:50:27.972Z,95839
2022-10-16T08:51:39.030Z,95844
2022-10-16T08:52:47.301Z,95843
2022-10-16T08:53:56.996Z,95840
2022-10-16T08:55:06.711Z,95847
2022-10-16T08:56:16.432Z,95843
2022-10-16T08:57:26.103Z,95842
2022-10-16T08:58:34.842Z,95844
2022-10-16T08:59:43.496Z,95846
2022-10-16T09:00:53.269Z,95851
2022-10-16T09:02:01.870Z,95846
2022-10-16T09:03:11.596Z,95855
2022-10-16T09:04:21.300Z,95855
2022-10-16T09:05:29.965Z,95859
2022-10-16T09:06:39.638Z,95858
2022-10-16T09:07:48.388Z,95857
2022-10-16T09:08:57.130Z,95860
2022-10-16T09:10:05.834Z,95864
2022-10-16T09:11:14.598Z,95861
2022-10-16T09:12:24.630Z,95861
2022-10-16T09:13:33.027Z,95863
2022-10-16T09:14:41.707Z,95862
2022-10-16T09:15:51.384Z,95866
2022-10-16T09:17:00.179Z,95868
2022-10-16T09:18:08.779Z,95869
2022-10-16T09:19:17.666Z,95865
2022-10-16T09:20:26.394Z,95863
2022-10-16T09:21:36.110Z,95865
2022-10-16T09:22:44.840Z,95866
2022-10-16T09:23:53.539Z,95862
2022-10-16T09:25:03.305Z,95864
2022-10-16T09:26:12.041Z,95866
2022-10-16T09:27:19.733Z,95865
2022-10-16T09:28:29.455Z,95862
2022-10-16T09:29:38.136Z,95863
2022-10-16T09:30:47.968Z,95861
2022-10-16T09:31:55.682Z,95863
2022-10-16T09:33:04.346Z,95863
2022-10-16T09:34:14.014Z,95857
2022-10-16T09:35:21.738Z,95860
2022-10-16T09:36:30.427Z,95860
2022-10-16T09:37:39.095Z,95862
2022-10-16T09:38:48.795Z,95866
2022-10-16T09:39:59.801Z,95864
2022-10-16T09:41:09.235Z,95869
2022-10-16T09:42:18.130Z,95873
2022-10-16T09:43:27.856Z,95874
2022-10-16T09:44:35.578Z,95866
2022-10-16T09:45:45.263Z,95872
2022-10-16T09:46:55.009Z,95868
2022-10-16T09:48:02.671Z,95870
2022-10-16T09:49:12.341Z,95863
2022-10-16T09:50:19.995Z,95860
2022-10-16T09:51:29.681Z,95866
2022-10-16T09:52:39.358Z,95863
2022-10-16T09:53:47.041Z,95866
2022-10-16T09:54:56.725Z,95872
2022-10-16T09:56:05.488Z,95871
2022-10-16T09:57:16.081Z,95870
2022-10-16T09:58:25.742Z,95879
2022-10-16T09:59:34.560Z,95875
2022-10-16T10:00:44.242Z,95874
2022-10-16T10:01:53.906Z,95878
2022-10-16T10:03:02.617Z,95883
2022-10-16T10:04:11.255Z,95882
2022-10-16T10:05:19.968Z,95886
2022-10-16T10:06:29.672Z,95882
2022-10-16T10:07:39.306Z,95884
2022-10-16T10:08:46.965Z,95882
2022-10-16T10:09:57.682Z,95884
2022-10-16T10:11:07.427Z,95885
2022-10-16T10:12:18.969Z,95888
2022-10-16T10:13:27.794Z,95888
2022-10-16T10:14:36.514Z,95892
2022-10-16T10:15:45.184Z,95888
2022-10-16T10:16:54.863Z,95887
2022-10-16T10:18:04.531Z,95886
2022-10-16T10:19:13.195Z,95886
2022-10-16T10:20:22.846Z,95881
2022-10-16T10:21:31.583Z,95879
2022-10-16T10:22:41.360Z,95877
2022-10-16T10:23:51.027Z,95877
2022-10-16T10:24:58.722Z,95881
2022-10-16T10:26:07.400Z,95880
2022-10-16T10:27:17.080Z,95882
2022-10-16T10:28:24.828Z,95880
2022-10-16T10:29:33.484Z,95880
2022-10-16T10:30:42.179Z,95883
2022-10-16T10:31:50.902Z,95877
2022-10-16T10:33:00.573Z,95881
2022-10-16T10:34:09.375Z,95880
2022-10-16T10:35:18.057Z,95878
2022-10-16T10:36:27.755Z,95881
2022-10-16T10:37:35.418Z,95881
2022-10-16T10:38:44.099Z,95884
2022-10-16T10:39:52.957Z,95883
2022-10-16T10:41:01.656Z,95881
2022-10-16T10:42:11.416Z,95884
2022-10-16T10:43:21.127Z,95881
2022-10-16T10:44:30.826Z,95881
2022-10-16T10:45:40.600Z,95880
2022-10-16T10:46:50.340Z,95881
2022-10-16T10:47:59.019Z,95875
2022-10-16T10:49:08.677Z,95879
2022-10-16T10:50:18.382Z,95877
2022-10-16T10:51:28.117Z,95880
2022-10-16T10:52:35.818Z,95876
2022-10-16T10:53:45.524Z,95880
2022-10-16T10:54:55.244Z,95881
2022-10-16T10:56:04.923Z,95879
2022-10-16T10:57:13.668Z,95876
2022-10-16T10:58:22.357Z,95883
2022-10-16T10:59:30.997Z,95886
2022-10-16T11:00:40.667Z,95887
2022-10-16T11:01:48.419Z,95881
2022-10-16T11:02:57.111Z,95882
2022-10-16T11:04:06.825Z,95884
2022-10-16T11:05:14.460Z,95876
2022-10-16T11:06:23.164Z,95874
2022-10-16T11:07:32.816Z,95878
2022-10-16T11:08:41.514Z,95882
2022-10-16T11:09:51.278Z,95878
2022-10-16T11:10:59.997Z,95881
2022-10-16T11:12:09.660Z,95879
2022-10-16T11:13:19.340Z,95880
2022-10-16T11:14:27.051Z,95881
2022-10-16T11:15:36.798Z,95878
2022-10-16T11:16:46.570Z,95869
2022-10-16T11:17:56.278Z,95875
2022-10-16T11:19:05.978Z,95870
2022-10-16T11:20:13.795Z,95876
2022-10-16T11:21:26.112Z,95876
2022-10-16T11:22:34.050Z,95877
2022-10-16T11:23:42.758Z,95876
2022-10-16T11:24:51.553Z,95874
2022-10-16T11:26:01.194Z,95883
2022-10-16T11:27:10.953Z,95882
2022-10-16T11:28:21.727Z,95881
2022-10-16T11:29:31.267Z,95882
2022-10-16T11:30:40.924Z,95879
2022-10-16T11:31:50.682Z,95877
2022-10-16T11:32:59.366Z,95877
2022-10-16T11:34:08.045Z,95875
2022-10-16T11:35:17.786Z,95872
2022-10-16T11:36:27.431Z,95874
2022-10-16T11:37:37.349Z,95873
2022-10-16T11:38:46.021Z,95876
2022-10-16T11:39:54.684Z,95873
2022-10-16T11:41:04.370Z,95872
2022-10-16T11:42:12.025Z,95870
2022-10-16T11:43:20.789Z,95874
2022-10-16T11:44:30.467Z,95876
2022-10-16T11:45:39.122Z,95871
2022-10-16T11:46:58.204Z,95873
2022-10-16T11:48:00.224Z,95877
2022-10-16T11:49:08.167Z,95878
2022-10-16T11:50:17.843Z,95877
2022-10-16T11:51:25.517Z,95875
2022-10-16T11:52:35.143Z,95878
2022-10-16T11:53:43.814Z,95869
2022-10-16T11:54:53.510Z,95868
2022-10-16T11:56:03.315Z,95870
2022-10-16T11:57:11.990Z,95865
2022-10-16T11:58:21.664Z,95862
2022-10-16T11:59:31.394Z,95867
2022-10-16T12:00:40.093Z,95864
2022-10-16T12:01:48.799Z,95865
2022-10-16T12:02:57.461Z,95864
2022-10-16T12:04:07.197Z,95867
2022-10-16T12:05:16.940Z,95868
2022-10-16T12:06:25.677Z,95862
2022-10-16T12:07:34.374Z,95868
2022-10-16T12:08:44.069Z,95866
2022-10-16T12:09:52.741Z,95863
2022-10-16T12:11:02.441Z,95861
2022-10-16T12:12:11.227Z,95861
2022-10-16T12:13:19.919Z,95860
2022-10-16T12:14:29.633Z,95859
2022-10-16T12:15:57.964Z,95863
2022-10-16T12:16:50.988Z,95859
2022-10-16T12:17:59.770Z,95866
2022-10-16T12:19:08.472Z,95868
2022-10-16T12:20:17.230Z,95866
2022-10-16T12:21:26.982Z,95866
2022-10-16T12:22:38.034Z,95870
2022-10-16T12:23:44.418Z,95869
2022-10-16T12:24:54.096Z,95870
2022-10-16T12:26:03.800Z,95873
2022-10-16T12:27:12.473Z,95870
2022-10-16T12:28:21.267Z,95869
2022-10-16T12:29:30.934Z,95868
2022-10-16T12:30:40.623Z,95873
2022-10-16T12:31:54.696Z,95876
2022-10-16T12:32:57.967Z,95874
2022-10-16T12:34:07.666Z,95875
2022-10-16T12:35:16.384Z,95871
2022-10-16T12:36:26.045Z,95871
2022-10-16T12:37:33.725Z,95871
2022-10-16T12:38:42.387Z,95870
2022-10-16T12:39:53.112Z,95868
2022-10-16T12:41:02.872Z,95870
2022-10-16T12:42:12.587Z,95870
2022-10-16T12:43:24.953Z,95865
2022-10-16T12:44:32.986Z,95869
2022-10-16T12:45:42.735Z,95864
2022-10-16T12:46:53.047Z,95867
2022-10-16T12:48:01.799Z,95866
2022-10-16T12:49:11.616Z,95866
2022-10-16T12:50:20.245Z,95867
2022-10-16T12:51:30.020Z,95870
2022-10-16T12:52:39.751Z,95869
2022-10-16T12:53:48.437Z,95867
2022-10-16T12:54:57.205Z,95869
2022-10-16T12:56:06.932Z,95868
2022-10-16T12:57:15.628Z,95868
2022-10-16T12:58:25.419Z,95866
2022-10-16T12:59:33.110Z,95866
2022-10-16T13:00:42.826Z,95867
2022-10-16T13:01:52.451Z,95864
2022-10-16T13:03:02.164Z,95870
2022-10-16T13:04:11.821Z,95863
2022-10-16T13:05:20.551Z,95864
2022-10-16T13:06:30.327Z,95865
2022-10-16T13:07:40.062Z,95860
2022-10-16T13:08:48.717Z,95866
2022-10-16T13:09:57.487Z,95860
2022-10-16T13:11:07.204Z,95862
2022-10-16T13:12:16.894Z,95864
2022-10-16T13:13:26.678Z,95867
2022-10-16T13:14:36.408Z,95865
2022-10-16T13:15:45.362Z,95863
2022-10-16T13:16:55.107Z,95861
2022-10-16T13:18:02.892Z,95861
2022-10-16T13:19:12.651Z,95862
2022-10-16T13:20:22.329Z,95863
2022-10-16T13:21:32.033Z,95861
2022-10-16T13:22:41.735Z,95868
2022-10-16T13:23:50.404Z,95870
2022-10-16T13:25:00.132Z,95866
2022-10-16T13:26:10.872Z,95867
2022-10-16T13:27:20.595Z,95872
2022-10-16T13:28:29.336Z,95871
2022-10-16T13:29:39.052Z,95872
2022-10-16T13:30:48.755Z,95875
2022-10-16T13:31:57.440Z,95881
2022-10-16T13:33:06.170Z,95880
2022-10-16T13:34:14.839Z,95877
2022-10-16T13:35:25.584Z,95876
2022-10-16T13:36:34.322Z,95876
2022-10-16T13:37:43.118Z,95873
2022-10-16T13:38:52.845Z,95871
2022-10-16T13:40:01.531Z,95875
2022-10-16T13:41:10.260Z,95876
2022-10-16T13:42:20.846Z,95872
2022-10-16T13:43:30.695Z,95878
2022-10-16T13:44:40.519Z,95881
2022-10-16T13:45:48.317Z,95878
2022-10-16T13:46:57.985Z,95878
2022-10-16T13:48:07.711Z,95880
2022-10-16T13:49:16.496Z,95884
2022-10-16T13:50:25.196Z,95883
2022-10-16T13:51:33.933Z,95879
2022-10-16T13:52:42.698Z,95885
2022-10-16T13:53:52.395Z,95883
2022-10-16T13:55:01.688Z,95876
2022-10-16T13:56:09.974Z,95885
2022-10-16T13:57:27.028Z,95882
2022-10-16T13:58:32.258Z,95884
2022-10-16T13:59:42.855Z,95881
2022-10-16T14:00:52.789Z,95880
2022-10-16T14:02:04.568Z,95882
2022-10-16T14:03:14.200Z,95885
2022-10-16T14:04:22.873Z,95886
2022-10-16T14:05:31.616Z,95887
2022-10-16T14:06:41.303Z,95884
2022-10-16T14:07:50.023Z,95882
2022-10-16T14:08:58.718Z,95883
2022-10-16T14:10:07.390Z,95885
2022-10-16T14:11:17.102Z,95886
2022-10-16T14:12:27.942Z,95889
2022-10-16T14:13:36.565Z,95890
2022-10-16T14:14:44.215Z,95886
2022-10-16T14:15:51.891Z,95892
2022-10-16T14:17:01.609Z,95891
2022-10-16T14:18:11.327Z,95893
2022-10-16T14:19:21.082Z,95891
2022-10-16T14:20:29.781Z,95890
2022-10-16T14:21:38.571Z,95898
2022-10-16T14:22:47.244Z,95893
2022-10-16T14:23:55.926Z,95893
2022-10-16T14:25:05.716Z,95894
2022-10-16T14:26:13.452Z,95891
2022-10-16T14:27:22.168Z,95895
2022-10-16T14:28:31.911Z,95890
2022-10-16T14:29:39.664Z,95892
2022-10-16T14:30:48.437Z,95890
2022-10-16T14:31:58.121Z,95891
2022-10-16T14:33:06.923Z,95886
2022-10-16T14:34:16.690Z,95891
2022-10-16T14:35:25.372Z,95891
2022-10-16T14:36:35.101Z,95891
2022-10-16T14:37:44.827Z,95889
2022-10-16T14:38:55.515Z,95891
2022-10-16T14:40:04.256Z,95890
2022-10-16T14:41:14.003Z,95888
2022-10-16T14:42:21.775Z,95890
2022-10-16T14:43:30.611Z,95890
2022-10-16T14:44:40.323Z,95890
2022-10-16T14:45:50.045Z,95892
2022-10-16T14:46:59.713Z,95890
2022-10-16T14:48:08.478Z,95891
2022-10-16T14:49:18.171Z,95889
2022-10-16T14:50:26.850Z,95887